sensor_id;sensor_type;location;lat;lon;timestamp;temperature;humidity
39099;DHT22;24844;52.380;7.018;2022-08-14T00:00:13;22.80;96.30
39099;DHT22;24844;52.380;7.018;2022-08-14T00:02:40;22.80;96.50
39099;DHT22;24844;52.380;7.018;2022-08-14T00:05:08;22.70;96.60
39099;DHT22;24844;52.380;7.018;2022-08-14T00:07:34;22.70;96.60
39099;DHT22;24844;52.380;7.018;2022-08-14T00:10:02;22.60;96.80
39099;DHT22;24844;52.380;7.018;2022-08-14T00:12:29;22.60;97.20
39099;DHT22;24844;52.380;7.018;2022-08-14T00:14:54;22.50;97.50
39099;DHT22;24844;52.380;7.018;2022-08-14T00:17:21;22.50;97.80
39099;DHT22;24844;52.380;7.018;2022-08-14T00:19:46;22.40;98.20
39099;DHT22;24844;52.380;7.018;2022-08-14T00:22:12;22.50;98.60
39099;DHT22;24844;52.380;7.018;2022-08-14T00:24:43;22.40;98.80
39099;DHT22;24844;52.380;7.018;2022-08-14T00:27:09;22.40;99.10
39099;DHT22;24844;52.380;7.018;2022-08-14T00:29:34;22.40;99.20
39099;DHT22;24844;52.380;7.018;2022-08-14T00:32:00;22.40;99.30
39099;DHT22;24844;52.380;7.018;2022-08-14T00:34:25;22.40;99.50
39099;DHT22;24844;52.380;7.018;2022-08-14T00:36:51;22.40;99.70
39099;DHT22;24844;52.380;7.018;2022-08-14T00:39:16;22.40;99.70
39099;DHT22;24844;52.380;7.018;2022-08-14T00:41:42;22.40;99.70
39099;DHT22;24844;52.380;7.018;2022-08-14T00:44:08;22.40;99.70
39099;DHT22;24844;52.380;7.018;2022-08-14T00:46:36;22.40;99.80
39099;DHT22;24844;52.380;7.018;2022-08-14T00:49:01;22.40;99.90
39099;DHT22;24844;52.380;7.018;2022-08-14T00:51:27;22.30;99.90
39099;DHT22;24844;52.380;7.018;2022-08-14T00:53:58;22.30;99.90
39099;DHT22;24844;52.380;7.018;2022-08-14T00:56:24;22.30;99.90
39099;DHT22;24844;52.380;7.018;2022-08-14T00:58:49;22.30;99.90
39099;DHT22;24844;52.380;7.018;2022-08-14T01:01:15;22.30;99.90
39099;DHT22;24844;52.380;7.018;2022-08-14T01:03:44;22.20;99.90
39099;DHT22;24844;52.380;7.018;2022-08-14T01:06:12;22.10;99.90
39099;DHT22;24844;52.380;7.018;2022-08-14T01:08:42;22.10;99.90
39099;DHT22;24844;52.380;7.018;2022-08-14T01:11:10;22.10;99.90
39099;DHT22;24844;52.380;7.018;2022-08-14T01:13:41;22.00;99.90
39099;DHT22;24844;52.380;7.018;2022-08-14T01:16:10;22.00;99.90
39099;DHT22;24844;52.380;7.018;2022-08-14T01:18:36;22.00;99.90
39099;DHT22;24844;52.380;7.018;2022-08-14T01:21:35;22.00;99.90
39099;DHT22;24844;52.380;7.018;2022-08-14T01:24:02;22.00;99.90
39099;DHT22;24844;52.380;7.018;2022-08-14T01:26:28;21.80;99.90
39099;DHT22;24844;52.380;7.018;2022-08-14T01:28:56;21.90;99.90
39099;DHT22;24844;52.380;7.018;2022-08-14T01:31:32;21.80;99.90
39099;DHT22;24844;52.380;7.018;2022-08-14T01:34:02;21.80;99.90
39099;DHT22;24844;52.380;7.018;2022-08-14T01:36:28;21.80;99.90
39099;DHT22;24844;52.380;7.018;2022-08-14T01:39:10;21.80;99.90
39099;DHT22;24844;52.380;7.018;2022-08-14T01:41:37;21.70;99.90
39099;DHT22;24844;52.380;7.018;2022-08-14T01:44:08;21.70;99.90
39099;DHT22;24844;52.380;7.018;2022-08-14T01:46:42;21.70;99.90
39099;DHT22;24844;52.380;7.018;2022-08-14T01:49:11;21.60;99.90
39099;DHT22;24844;52.380;7.018;2022-08-14T01:51:40;21.60;99.90
39099;DHT22;24844;52.380;7.018;2022-08-14T01:54:17;21.60;99.90
39099;DHT22;24844;52.380;7.018;2022-08-14T01:56:50;21.50;99.90
39099;DHT22;24844;52.380;7.018;2022-08-14T02:01:42;21.50;99.90
39099;DHT22;24844;52.380;7.018;2022-08-14T02:04:08;21.50;99.90
39099;DHT22;24844;52.380;7.018;2022-08-14T02:06:35;21.50;99.90
39099;DHT22;24844;52.380;7.018;2022-08-14T02:09:04;21.40;99.90
39099;DHT22;24844;52.380;7.018;2022-08-14T02:11:30;21.40;99.90
39099;DHT22;24844;52.380;7.018;2022-08-14T02:13:57;21.30;99.90
39099;DHT22;24844;52.380;7.018;2022-08-14T02:16:26;21.30;99.90
39099;DHT22;24844;52.380;7.018;2022-08-14T02:18:56;21.30;99.90
39099;DHT22;24844;52.380;7.018;2022-08-14T02:21:22;21.30;99.90
39099;DHT22;24844;52.380;7.018;2022-08-14T02:23:49;21.30;99.90
39099;DHT22;24844;52.380;7.018;2022-08-14T02:26:22;21.40;99.90
39099;DHT22;24844;52.380;7.018;2022-08-14T02:28:50;21.30;99.90
39099;DHT22;24844;52.380;7.018;2022-08-14T02:31:17;21.30;99.90
39099;DHT22;24844;52.380;7.018;2022-08-14T02:33:43;21.20;99.90
39099;DHT22;24844;52.380;7.018;2022-08-14T02:36:10;21.20;99.90
39099;DHT22;24844;52.380;7.018;2022-08-14T02:38:36;21.20;99.90
39099;DHT22;24844;52.380;7.018;2022-08-14T02:41:03;21.10;99.90
39099;DHT22;24844;52.380;7.018;2022-08-14T02:43:30;21.10;99.90
39099;DHT22;24844;52.380;7.018;2022-08-14T02:45:57;21.00;99.90
39099;DHT22;24844;52.380;7.018;2022-08-14T02:48:23;21.00;99.90
39099;DHT22;24844;52.380;7.018;2022-08-14T02:50:57;20.90;99.90
39099;DHT22;24844;52.380;7.018;2022-08-14T02:53:23;21.00;99.90
39099;DHT22;24844;52.380;7.018;2022-08-14T02:55:49;20.90;99.90
39099;DHT22;24844;52.380;7.018;2022-08-14T02:58:15;20.90;99.90
39099;DHT22;24844;52.380;7.018;2022-08-14T03:00:41;20.90;99.90
39099;DHT22;24844;52.380;7.018;2022-08-14T03:03:07;20.90;99.90
39099;DHT22;24844;52.380;7.018;2022-08-14T03:05:33;20.90;99.90
39099;DHT22;24844;52.380;7.018;2022-08-14T03:08:12;20.90;99.90
39099;DHT22;24844;52.380;7.018;2022-08-14T03:10:38;20.80;99.90
39099;DHT22;24844;52.380;7.018;2022-08-14T03:13:03;20.80;99.90
39099;DHT22;24844;52.380;7.018;2022-08-14T03:15:31;20.80;99.90
39099;DHT22;24844;52.380;7.018;2022-08-14T03:17:58;20.90;99.90
39099;DHT22;24844;52.380;7.018;2022-08-14T03:20:27;20.70;99.90
39099;DHT22;24844;52.380;7.018;2022-08-14T03:22:54;20.70;99.90
39099;DHT22;24844;52.380;7.018;2022-08-14T03:25:20;20.70;99.90
39099;DHT22;24844;52.380;7.018;2022-08-14T03:27:47;20.70;99.90
39099;DHT22;24844;52.380;7.018;2022-08-14T03:30:12;20.70;99.90
39099;DHT22;24844;52.380;7.018;2022-08-14T03:32:38;20.60;99.90
39099;DHT22;24844;52.380;7.018;2022-08-14T03:35:04;20.60;99.90
39099;DHT22;24844;52.380;7.018;2022-08-14T03:37:31;20.60;99.90
39099;DHT22;24844;52.380;7.018;2022-08-14T03:39:57;20.50;99.90
39099;DHT22;24844;52.380;7.018;2022-08-14T03:42:23;20.50;99.90
39099;DHT22;24844;52.380;7.018;2022-08-14T03:44:50;20.50;99.90
39099;DHT22;24844;52.380;7.018;2022-08-14T03:47:16;20.60;99.90
39099;DHT22;24844;52.380;7.018;2022-08-14T03:49:43;20.50;99.90
39099;DHT22;24844;52.380;7.018;2022-08-14T03:52:10;20.50;99.90
39099;DHT22;24844;52.380;7.018;2022-08-14T03:54:36;20.40;99.90
39099;DHT22;24844;52.380;7.018;2022-08-14T03:57:02;20.30;99.90
39099;DHT22;24844;52.380;7.018;2022-08-14T03:59:28;20.30;99.90
39099;DHT22;24844;52.380;7.018;2022-08-14T04:01:54;20.20;99.90
39099;DHT22;24844;52.380;7.018;2022-08-14T04:04:19;20.10;99.90
39099;DHT22;24844;52.380;7.018;2022-08-14T04:06:45;20.10;99.90
39099;DHT22;24844;52.380;7.018;2022-08-14T04:09:10;20.00;99.90
39099;DHT22;24844;52.380;7.018;2022-08-14T04:11:37;19.90;99.90
39099;DHT22;24844;52.380;7.018;2022-08-14T04:14:04;19.90;99.90
39099;DHT22;24844;52.380;7.018;2022-08-14T04:16:30;19.80;99.90
39099;DHT22;24844;52.380;7.018;2022-08-14T04:18:57;19.80;99.90
39099;DHT22;24844;52.380;7.018;2022-08-14T04:21:25;19.80;99.90
39099;DHT22;24844;52.380;7.018;2022-08-14T04:23:53;19.70;99.90
39099;DHT22;24844;52.380;7.018;2022-08-14T04:26:19;19.60;99.90
39099;DHT22;24844;52.380;7.018;2022-08-14T04:28:47;19.70;99.90
39099;DHT22;24844;52.380;7.018;2022-08-14T04:31:14;19.70;99.90
39099;DHT22;24844;52.380;7.018;2022-08-14T04:33:41;19.70;99.90
39099;DHT22;24844;52.380;7.018;2022-08-14T04:36:07;19.70;99.90
39099;DHT22;24844;52.380;7.018;2022-08-14T04:38:33;19.70;99.90
39099;DHT22;24844;52.380;7.018;2022-08-14T04:41:17;19.80;99.90
39099;DHT22;24844;52.380;7.018;2022-08-14T04:44:03;19.90;99.90
39099;DHT22;24844;52.380;7.018;2022-08-14T04:46:29;19.90;99.90
39099;DHT22;24844;52.380;7.018;2022-08-14T04:48:55;20.10;99.90
39099;DHT22;24844;52.380;7.018;2022-08-14T04:51:22;20.40;99.90
39099;DHT22;24844;52.380;7.018;2022-08-14T04:53:51;20.60;99.90
39099;DHT22;24844;52.380;7.018;2022-08-14T04:56:18;20.70;99.90
39099;DHT22;24844;52.380;7.018;2022-08-14T04:58:48;20.90;99.90
39099;DHT22;24844;52.380;7.018;2022-08-14T05:01:15;21.00;99.90
39099;DHT22;24844;52.380;7.018;2022-08-14T05:03:41;21.30;99.90
39099;DHT22;24844;52.380;7.018;2022-08-14T05:06:08;21.40;99.90
39099;DHT22;24844;52.380;7.018;2022-08-14T05:08:35;21.80;99.90
39099;DHT22;24844;52.380;7.018;2022-08-14T05:11:03;22.00;99.90
39099;DHT22;24844;52.380;7.018;2022-08-14T05:13:31;22.40;99.90
39099;DHT22;24844;52.380;7.018;2022-08-14T05:15:58;22.70;99.90
39099;DHT22;24844;52.380;7.018;2022-08-14T05:18:29;23.00;99.90
39099;DHT22;24844;52.380;7.018;2022-08-14T05:20:57;23.20;99.90
39099;DHT22;24844;52.380;7.018;2022-08-14T05:23:25;23.40;99.90
39099;DHT22;24844;52.380;7.018;2022-08-14T05:25:52;23.50;99.90
39099;DHT22;24844;52.380;7.018;2022-08-14T05:28:25;23.50;99.90
39099;DHT22;24844;52.380;7.018;2022-08-14T05:30:59;23.60;99.90
39099;DHT22;24844;52.380;7.018;2022-08-14T05:33:27;23.50;99.90
39099;DHT22;24844;52.380;7.018;2022-08-14T05:35:54;23.40;99.90
39099;DHT22;24844;52.380;7.018;2022-08-14T05:38:36;23.10;99.90
39099;DHT22;24844;52.380;7.018;2022-08-14T05:41:04;23.00;99.90
39099;DHT22;24844;52.380;7.018;2022-08-14T05:43:30;23.00;99.90
39099;DHT22;24844;52.380;7.018;2022-08-14T05:45:57;22.90;99.90
39099;DHT22;24844;52.380;7.018;2022-08-14T05:48:23;22.80;99.90
39099;DHT22;24844;52.380;7.018;2022-08-14T05:50:49;22.80;99.90
39099;DHT22;24844;52.380;7.018;2022-08-14T05:53:16;22.70;99.90
39099;DHT22;24844;52.380;7.018;2022-08-14T05:55:42;22.60;99.90
39099;DHT22;24844;52.380;7.018;2022-08-14T05:58:07;22.50;99.90
39099;DHT22;24844;52.380;7.018;2022-08-14T06:00:39;22.60;99.90
39099;DHT22;24844;52.380;7.018;2022-08-14T06:03:08;22.50;99.90
39099;DHT22;24844;52.380;7.018;2022-08-14T06:05:35;22.40;99.90
39099;DHT22;24844;52.380;7.018;2022-08-14T06:08:02;22.30;99.90
39099;DHT22;24844;52.380;7.018;2022-08-14T06:10:29;22.30;99.90
39099;DHT22;24844;52.380;7.018;2022-08-14T06:12:56;22.50;99.90
39099;DHT22;24844;52.380;7.018;2022-08-14T06:15:22;22.60;99.90
39099;DHT22;24844;52.380;7.018;2022-08-14T06:17:52;22.60;99.90
39099;DHT22;24844;52.380;7.018;2022-08-14T06:20:18;22.20;99.90
39099;DHT22;24844;52.380;7.018;2022-08-14T06:22:46;22.20;99.90
39099;DHT22;24844;52.380;7.018;2022-08-14T06:25:12;22.50;99.90
39099;DHT22;24844;52.380;7.018;2022-08-14T06:27:40;22.40;99.90
39099;DHT22;24844;52.380;7.018;2022-08-14T06:30:09;22.40;99.90
39099;DHT22;24844;52.380;7.018;2022-08-14T06:32:35;22.40;99.90
39099;DHT22;24844;52.380;7.018;2022-08-14T06:35:02;22.70;99.90
39099;DHT22;24844;52.380;7.018;2022-08-14T06:37:38;22.90;99.90
39099;DHT22;24844;52.380;7.018;2022-08-14T06:40:04;22.60;99.90
39099;DHT22;24844;52.380;7.018;2022-08-14T06:42:30;22.80;99.90
39099;DHT22;24844;52.380;7.018;2022-08-14T06:44:55;22.70;99.90
39099;DHT22;24844;52.380;7.018;2022-08-14T06:47:22;22.70;99.90
39099;DHT22;24844;52.380;7.018;2022-08-14T06:49:48;22.80;99.90
39099;DHT22;24844;52.380;7.018;2022-08-14T06:52:13;22.80;99.90
39099;DHT22;24844;52.380;7.018;2022-08-14T06:54:39;22.90;99.90
39099;DHT22;24844;52.380;7.018;2022-08-14T06:57:05;23.00;99.90
39099;DHT22;24844;52.380;7.018;2022-08-14T06:59:30;23.20;99.90
39099;DHT22;24844;52.380;7.018;2022-08-14T07:01:56;23.50;99.90
39099;DHT22;24844;52.380;7.018;2022-08-14T07:04:40;23.50;99.90
39099;DHT22;24844;52.380;7.018;2022-08-14T07:07:24;23.40;99.90
39099;DHT22;24844;52.380;7.018;2022-08-14T07:09:50;23.40;99.90
39099;DHT22;24844;52.380;7.018;2022-08-14T07:12:15;23.60;99.90
39099;DHT22;24844;52.380;7.018;2022-08-14T07:14:42;23.80;99.90
39099;DHT22;24844;52.380;7.018;2022-08-14T07:17:07;23.90;99.90
39099;DHT22;24844;52.380;7.018;2022-08-14T07:19:33;24.00;99.90
39099;DHT22;24844;52.380;7.018;2022-08-14T07:21:58;24.20;99.90
39099;DHT22;24844;52.380;7.018;2022-08-14T07:24:25;24.40;99.90
39099;DHT22;24844;52.380;7.018;2022-08-14T07:26:50;24.50;99.90
39099;DHT22;24844;52.380;7.018;2022-08-14T07:29:16;24.60;99.90
39099;DHT22;24844;52.380;7.018;2022-08-14T07:31:41;25.10;99.90
39099;DHT22;24844;52.380;7.018;2022-08-14T07:34:07;25.40;99.90
39099;DHT22;24844;52.380;7.018;2022-08-14T07:36:32;25.70;99.90
39099;DHT22;24844;52.380;7.018;2022-08-14T07:38:59;26.20;99.40
39099;DHT22;24844;52.380;7.018;2022-08-14T07:41:24;26.90;98.00
39099;DHT22;24844;52.380;7.018;2022-08-14T07:43:50;28.10;97.10
39099;DHT22;24844;52.380;7.018;2022-08-14T07:46:15;28.70;95.30
39099;DHT22;24844;52.380;7.018;2022-08-14T07:48:41;29.30;94.80
39099;DHT22;24844;52.380;7.018;2022-08-14T07:51:08;29.80;93.70
39099;DHT22;24844;52.380;7.018;2022-08-14T07:53:35;31.00;92.80
39099;DHT22;24844;52.380;7.018;2022-08-14T07:56:01;30.80;91.50
39099;DHT22;24844;52.380;7.018;2022-08-14T07:58:26;29.80;92.50
39099;DHT22;24844;52.380;7.018;2022-08-14T08:00:55;29.90;92.20
39099;DHT22;24844;52.380;7.018;2022-08-14T08:03:22;30.20;91.90
39099;DHT22;24844;52.380;7.018;2022-08-14T08:05:49;29.80;91.70
39099;DHT22;24844;52.380;7.018;2022-08-14T08:08:15;29.50;92.50
39099;DHT22;24844;52.380;7.018;2022-08-14T08:10:41;30.10;91.70
39099;DHT22;24844;52.380;7.018;2022-08-14T08:13:14;31.10;90.50
39099;DHT22;24844;52.380;7.018;2022-08-14T08:15:41;30.70;90.70
39099;DHT22;24844;52.380;7.018;2022-08-14T08:18:10;30.90;90.30
39099;DHT22;24844;52.380;7.018;2022-08-14T08:20:45;31.40;89.50
39099;DHT22;24844;52.380;7.018;2022-08-14T08:23:12;30.90;89.70
39099;DHT22;24844;52.380;7.018;2022-08-14T08:25:39;32.30;88.70
39099;DHT22;24844;52.380;7.018;2022-08-14T08:30:34;33.30;84.80
39099;DHT22;24844;52.380;7.018;2022-08-14T08:33:02;34.30;82.60
39099;DHT22;24844;52.380;7.018;2022-08-14T08:35:33;34.40;81.40
39099;DHT22;24844;52.380;7.018;2022-08-14T08:38:03;34.70;78.90
39099;DHT22;24844;52.380;7.018;2022-08-14T08:40:35;34.30;77.60
39099;DHT22;24844;52.380;7.018;2022-08-14T08:43:05;35.40;75.80
39099;DHT22;24844;52.380;7.018;2022-08-14T08:45:34;35.20;74.70
39099;DHT22;24844;52.380;7.018;2022-08-14T08:48:00;33.50;75.10
39099;DHT22;24844;52.380;7.018;2022-08-14T08:50:32;33.50;75.90
39099;DHT22;24844;52.380;7.018;2022-08-14T08:53:01;32.90;77.30
39099;DHT22;24844;52.380;7.018;2022-08-14T08:55:32;33.60;76.40
39099;DHT22;24844;52.380;7.018;2022-08-14T08:58:01;33.70;75.70
39099;DHT22;24844;52.380;7.018;2022-08-14T09:00:29;33.00;75.50
39099;DHT22;24844;52.380;7.018;2022-08-14T09:03:06;32.10;75.70
39099;DHT22;24844;52.380;7.018;2022-08-14T09:05:35;32.50;76.00
39099;DHT22;24844;52.380;7.018;2022-08-14T09:08:13;32.90;75.70
39099;DHT22;24844;52.380;7.018;2022-08-14T09:10:39;33.50;73.20
39099;DHT22;24844;52.380;7.018;2022-08-14T09:13:04;33.10;74.50
39099;DHT22;24844;52.380;7.018;2022-08-14T09:15:30;33.90;74.30
39099;DHT22;24844;52.380;7.018;2022-08-14T09:17:56;35.10;71.60
39099;DHT22;24844;52.380;7.018;2022-08-14T09:20:22;36.60;69.40
39099;DHT22;24844;52.380;7.018;2022-08-14T09:22:49;36.50;68.10
39099;DHT22;24844;52.380;7.018;2022-08-14T09:25:16;34.60;68.80
39099;DHT22;24844;52.380;7.018;2022-08-14T09:27:42;33.30;70.10
39099;DHT22;24844;52.380;7.018;2022-08-14T09:30:09;34.10;70.80
39099;DHT22;24844;52.380;7.018;2022-08-14T09:38:46;35.40;67.90
39099;DHT22;24844;52.380;7.018;2022-08-14T09:44:13;35.50;66.80
39099;DHT22;24844;52.380;7.018;2022-08-14T09:46:54;35.60;66.50
39099;DHT22;24844;52.380;7.018;2022-08-14T09:49:31;36.00;65.40
39099;DHT22;24844;52.380;7.018;2022-08-14T09:52:06;35.90;64.80
39099;DHT22;24844;52.380;7.018;2022-08-14T09:54:43;36.60;63.60
39099;DHT22;24844;52.380;7.018;2022-08-14T09:57:11;36.20;62.70
39099;DHT22;24844;52.380;7.018;2022-08-14T09:59:48;34.80;64.40
39099;DHT22;24844;52.380;7.018;2022-08-14T10:02:21;34.40;63.90
39099;DHT22;24844;52.380;7.018;2022-08-14T10:04:59;35.50;63.70
39099;DHT22;24844;52.380;7.018;2022-08-14T10:07:36;35.40;63.40
39099;DHT22;24844;52.380;7.018;2022-08-14T10:10:03;35.60;64.10
39099;DHT22;24844;52.380;7.018;2022-08-14T10:12:43;36.50;62.90
39099;DHT22;24844;52.380;7.018;2022-08-14T10:15:17;36.70;61.30
39099;DHT22;24844;52.380;7.018;2022-08-14T10:17:44;35.60;61.90
39099;DHT22;24844;52.380;7.018;2022-08-14T10:20:10;36.00;61.70
39099;DHT22;24844;52.380;7.018;2022-08-14T10:22:36;36.90;61.10
39099;DHT22;24844;52.380;7.018;2022-08-14T10:25:13;35.90;61.80
39099;DHT22;24844;52.380;7.018;2022-08-14T10:27:39;36.10;62.00
39099;DHT22;24844;52.380;7.018;2022-08-14T10:30:13;37.50;60.00
39099;DHT22;24844;52.380;7.018;2022-08-14T10:32:46;38.30;58.00
39099;DHT22;24844;52.380;7.018;2022-08-14T10:35:14;38.50;57.70
39099;DHT22;24844;52.380;7.018;2022-08-14T10:37:50;38.20;57.00
39099;DHT22;24844;52.380;7.018;2022-08-14T10:40:26;36.30;57.30
39099;DHT22;24844;52.380;7.018;2022-08-14T10:42:52;37.70;57.50
39099;DHT22;24844;52.380;7.018;2022-08-14T10:47:50;39.90;54.20
39099;DHT22;24844;52.380;7.018;2022-08-14T10:50:30;39.30;54.40
39099;DHT22;24844;52.380;7.018;2022-08-14T10:52:58;38.50;54.60
39099;DHT22;24844;52.380;7.018;2022-08-14T10:55:31;36.40;56.80
39099;DHT22;24844;52.380;7.018;2022-08-14T10:57:56;38.00;55.90
39099;DHT22;24844;52.380;7.018;2022-08-14T11:00:24;37.50;55.40
39099;DHT22;24844;52.380;7.018;2022-08-14T11:03:07;36.60;55.60
39099;DHT22;24844;52.380;7.018;2022-08-14T11:05:40;37.30;55.40
39099;DHT22;24844;52.380;7.018;2022-08-14T11:08:07;38.40;54.20
39099;DHT22;24844;52.380;7.018;2022-08-14T11:10:54;38.20;54.10
39099;DHT22;24844;52.380;7.018;2022-08-14T11:13:27;34.60;57.60
39099;DHT22;24844;52.380;7.018;2022-08-14T11:15:54;32.50;60.80
39099;DHT22;24844;52.380;7.018;2022-08-14T11:18:21;32.80;61.30
39099;DHT22;24844;52.380;7.018;2022-08-14T11:20:54;32.30;62.90
39099;DHT22;24844;52.380;7.018;2022-08-14T11:23:28;32.50;61.70
39099;DHT22;24844;52.380;7.018;2022-08-14T11:25:57;31.70;63.60
39099;DHT22;24844;52.380;7.018;2022-08-14T11:28:24;32.00;63.30
39099;DHT22;24844;52.380;7.018;2022-08-14T11:30:51;31.00;65.00
39099;DHT22;24844;52.380;7.018;2022-08-14T11:33:22;30.50;66.30
39099;DHT22;24844;52.380;7.018;2022-08-14T11:35:48;30.20;66.90
39099;DHT22;24844;52.380;7.018;2022-08-14T11:38:15;30.40;67.40
39099;DHT22;24844;52.380;7.018;2022-08-14T11:40:42;30.50;67.70
39099;DHT22;24844;52.380;7.018;2022-08-14T11:43:08;31.30;65.90
39099;DHT22;24844;52.380;7.018;2022-08-14T11:45:38;31.70;64.40
39099;DHT22;24844;52.380;7.018;2022-08-14T11:48:18;30.70;66.30
39099;DHT22;24844;52.380;7.018;2022-08-14T11:50:45;30.60;66.60
39099;DHT22;24844;52.380;7.018;2022-08-14T11:53:28;30.80;67.70
39099;DHT22;24844;52.380;7.018;2022-08-14T11:56:04;31.30;66.70
39099;DHT22;24844;52.380;7.018;2022-08-14T11:58:32;31.50;66.00
39099;DHT22;24844;52.380;7.018;2022-08-14T12:01:01;31.30;66.40
39099;DHT22;24844;52.380;7.018;2022-08-14T12:03:40;31.60;65.80
39099;DHT22;24844;52.380;7.018;2022-08-14T12:06:09;31.40;65.80
39099;DHT22;24844;52.380;7.018;2022-08-14T12:08:36;31.10;66.80
39099;DHT22;24844;52.380;7.018;2022-08-14T12:11:04;31.60;65.40
39099;DHT22;24844;52.380;7.018;2022-08-14T12:13:31;31.50;65.10
39099;DHT22;24844;52.380;7.018;2022-08-14T12:16:03;31.10;65.50
39099;DHT22;24844;52.380;7.018;2022-08-14T12:20:57;30.60;65.90
39099;DHT22;24844;52.380;7.018;2022-08-14T12:23:24;30.60;65.80
39099;DHT22;24844;52.380;7.018;2022-08-14T12:26:04;30.60;66.10
39099;DHT22;24844;52.380;7.018;2022-08-14T12:28:29;30.90;66.20
39099;DHT22;24844;52.380;7.018;2022-08-14T12:30:55;30.80;66.30
39099;DHT22;24844;52.380;7.018;2022-08-14T12:33:29;31.10;66.00
39099;DHT22;24844;52.380;7.018;2022-08-14T12:35:59;30.30;66.10
39099;DHT22;24844;52.380;7.018;2022-08-14T12:38:41;30.30;66.90
39099;DHT22;24844;52.380;7.018;2022-08-14T12:41:12;30.40;66.20
39099;DHT22;24844;52.380;7.018;2022-08-14T12:43:53;30.40;66.60
39099;DHT22;24844;52.380;7.018;2022-08-14T12:46:35;30.50;66.30
39099;DHT22;24844;52.380;7.018;2022-08-14T12:49:15;30.50;66.70
39099;DHT22;24844;52.380;7.018;2022-08-14T12:51:42;30.50;67.70
39099;DHT22;24844;52.380;7.018;2022-08-14T12:54:13;30.90;66.60
39099;DHT22;24844;52.380;7.018;2022-08-14T12:56:39;30.90;66.30
39099;DHT22;24844;52.380;7.018;2022-08-14T12:59:05;30.60;67.50
39099;DHT22;24844;52.380;7.018;2022-08-14T13:01:32;30.70;67.20
39099;DHT22;24844;52.380;7.018;2022-08-14T13:04:06;31.50;66.60
39099;DHT22;24844;52.380;7.018;2022-08-14T13:06:37;31.30;65.60
39099;DHT22;24844;52.380;7.018;2022-08-14T13:09:04;31.60;65.10
39099;DHT22;24844;52.380;7.018;2022-08-14T13:11:38;31.50;65.40
39099;DHT22;24844;52.380;7.018;2022-08-14T13:14:05;30.90;65.90
39099;DHT22;24844;52.380;7.018;2022-08-14T13:16:31;31.10;66.20
39099;DHT22;24844;52.380;7.018;2022-08-14T13:18:57;31.40;65.80
39099;DHT22;24844;52.380;7.018;2022-08-14T13:21:26;31.10;65.30
39099;DHT22;24844;52.380;7.018;2022-08-14T13:23:53;31.20;65.90
39099;DHT22;24844;52.380;7.018;2022-08-14T13:26:23;31.30;65.30
39099;DHT22;24844;52.380;7.018;2022-08-14T13:28:50;31.10;65.00
39099;DHT22;24844;52.380;7.018;2022-08-14T13:31:21;30.80;64.90
39099;DHT22;24844;52.380;7.018;2022-08-14T13:33:47;31.00;65.90
39099;DHT22;24844;52.380;7.018;2022-08-14T13:36:13;31.20;65.70
39099;DHT22;24844;52.380;7.018;2022-08-14T13:38:41;31.20;65.80
39099;DHT22;24844;52.380;7.018;2022-08-14T13:41:10;31.30;66.70
39099;DHT22;24844;52.380;7.018;2022-08-14T13:43:36;31.00;65.00
39099;DHT22;24844;52.380;7.018;2022-08-14T13:46:04;31.10;64.70
39099;DHT22;24844;52.380;7.018;2022-08-14T13:48:29;31.30;64.60
39099;DHT22;24844;52.380;7.018;2022-08-14T13:50:57;31.40;64.40
39099;DHT22;24844;52.380;7.018;2022-08-14T13:53:25;31.60;64.70
39099;DHT22;24844;52.380;7.018;2022-08-14T13:55:52;31.80;65.20
39099;DHT22;24844;52.380;7.018;2022-08-14T13:58:19;31.70;65.30
39099;DHT22;24844;52.380;7.018;2022-08-14T14:00:48;31.20;65.30
39099;DHT22;24844;52.380;7.018;2022-08-14T14:03:17;31.50;65.80
39099;DHT22;24844;52.380;7.018;2022-08-14T14:05:42;31.80;65.20
39099;DHT22;24844;52.380;7.018;2022-08-14T14:08:08;32.50;64.80
39099;DHT22;24844;52.380;7.018;2022-08-14T14:10:35;33.00;63.00
39099;DHT22;24844;52.380;7.018;2022-08-14T14:13:02;33.00;62.90
39099;DHT22;24844;52.380;7.018;2022-08-14T14:15:29;32.70;63.40
39099;DHT22;24844;52.380;7.018;2022-08-14T14:17:55;32.50;64.20
39099;DHT22;24844;52.380;7.018;2022-08-14T14:20:23;32.00;63.70
39099;DHT22;24844;52.380;7.018;2022-08-14T14:22:50;32.40;63.60
39099;DHT22;24844;52.380;7.018;2022-08-14T14:25:18;32.60;63.20
39099;DHT22;24844;52.380;7.018;2022-08-14T14:27:46;32.80;62.80
39099;DHT22;24844;52.380;7.018;2022-08-14T14:30:15;32.70;63.40
39099;DHT22;24844;52.380;7.018;2022-08-14T14:32:43;32.10;64.30
39099;DHT22;24844;52.380;7.018;2022-08-14T14:35:15;32.50;63.90
39099;DHT22;24844;52.380;7.018;2022-08-14T14:37:42;32.50;63.70
39099;DHT22;24844;52.380;7.018;2022-08-14T14:40:09;32.20;64.40
39099;DHT22;24844;52.380;7.018;2022-08-14T14:42:56;32.30;63.90
39099;DHT22;24844;52.380;7.018;2022-08-14T14:45:23;32.50;63.70
39099;DHT22;24844;52.380;7.018;2022-08-14T14:47:52;32.40;64.10
39099;DHT22;24844;52.380;7.018;2022-08-14T14:50:19;32.20;63.50
39099;DHT22;24844;52.380;7.018;2022-08-14T14:52:46;32.30;64.20
39099;DHT22;24844;52.380;7.018;2022-08-14T14:55:13;32.40;64.20
39099;DHT22;24844;52.380;7.018;2022-08-14T14:57:40;31.80;63.70
39099;DHT22;24844;52.380;7.018;2022-08-14T15:00:12;32.00;63.40
39099;DHT22;24844;52.380;7.018;2022-08-14T15:02:41;32.20;64.30
39099;DHT22;24844;52.380;7.018;2022-08-14T15:05:08;31.90;62.30
39099;DHT22;24844;52.380;7.018;2022-08-14T15:07:35;31.50;62.70
39099;DHT22;24844;52.380;7.018;2022-08-14T15:10:04;31.50;64.30
39099;DHT22;24844;52.380;7.018;2022-08-14T15:12:29;31.40;64.40
39099;DHT22;24844;52.380;7.018;2022-08-14T15:14:55;32.10;63.70
39099;DHT22;24844;52.380;7.018;2022-08-14T15:17:21;32.50;62.70
39099;DHT22;24844;52.380;7.018;2022-08-14T15:19:47;32.50;62.80
39099;DHT22;24844;52.380;7.018;2022-08-14T15:22:14;32.40;62.60
39099;DHT22;24844;52.380;7.018;2022-08-14T15:24:40;31.90;61.60
39099;DHT22;24844;52.380;7.018;2022-08-14T15:27:06;31.90;62.60
39099;DHT22;24844;52.380;7.018;2022-08-14T15:29:33;31.50;62.50
39099;DHT22;24844;52.380;7.018;2022-08-14T15:32:08;31.40;62.70
39099;DHT22;24844;52.380;7.018;2022-08-14T15:34:37;31.30;62.80
39099;DHT22;24844;52.380;7.018;2022-08-14T15:37:04;31.30;63.20
39099;DHT22;24844;52.380;7.018;2022-08-14T15:39:33;31.40;62.20
39099;DHT22;24844;52.380;7.018;2022-08-14T15:41:59;31.20;63.00
39099;DHT22;24844;52.380;7.018;2022-08-14T15:44:27;31.40;63.30
39099;DHT22;24844;52.380;7.018;2022-08-14T15:46:54;31.40;63.20
39099;DHT22;24844;52.380;7.018;2022-08-14T15:49:21;31.40;62.90
39099;DHT22;24844;52.380;7.018;2022-08-14T15:51:48;31.50;63.30
39099;DHT22;24844;52.380;7.018;2022-08-14T15:54:14;31.60;61.20
39099;DHT22;24844;52.380;7.018;2022-08-14T15:56:40;32.10;61.40